Airfield :
LOGIN :

Register | Disclaimer

   EN    FR    IT 

 










Legend :    VFR   Marginal VFR   IFR   Intensive IFR   Very Intensive IFR
Visi :
Ceiling :
>= 8 km
>= 3000ft
5 to 8 km
1000 to 3000 ft
1500m to 5 km
500 to 1000 ft
800 to 1500m
200 to 500 ft
< 800m
< 200 ft
Symbols :   Thunderstorms  Fog  Heavy snow  Heavy precipitations  Wind > 20 kt
SIGMETs :     Misc.  Thunderstorms  Icing  Turbulence  Mountain Waves  Volcanic Ashes






- Airport Elevation : 614 ft
- IATA code : CRL


EBCI - Charleroi

CURRENT METAR :
  • 061920Z 36005KT 300V020 9999 FEW018 01/M01 Q1039 NOSIG

EXPIRED METARs :
  • 061850Z 01006KT 9999 FEW018 01/M01 Q1039 NOSIG
  • 061820Z 03006KT 340V040 9999 FEW018 01/M01 Q1039 NOSIG
  • 061750Z 04006KT 360V060 9999 FEW018 02/M01 Q1039 NOSIG
  • 061720Z 06009KT 9999 FEW018 02/M00 Q1039 NOSIG
  • 061650Z 06010KT 9999 FEW018 03/00 Q1039 NOSIG

TAF TAF EBCI
Valid from the 06 at 18:00 until the 08 at 00:00 UTC


061701Z 0618/0724 05007KT 9999 FEW020
BECMG 0622/0701 3500 BR
PROB40
TEMPO 0700/0709 2000 MIFG
PROB30
TEMPO 0701/0708 0400 FZFG OVC001
BECMG 0708/0710 CAVOK



MET'MAP, your aeronautical weather chart ! - Copyright ORBIFLY December 2007 - Disclaimer

ORBIFLY MET'MAP TEAM :

Programming & Development : Alexandra Zaïnal
Original concept : Baudouin d'Aumeries
Technical & hardware support : Manuel Goepfert
Assistance : Marc-Olivier Méhu




SOURCES & CREDITS :

   NOAA